sensor_id;sensor_type;location;lat;lon;timestamp;pressure;altitude;pressure_sealevel;temperature;humidity
19236;BME280;9752;54.270;12.470;2022-07-17T00:03:19;102348.34;;;12.57;100.00
19236;BME280;9752;54.270;12.470;2022-07-17T00:08:21;102360.78;;;12.61;100.00
19236;BME280;9752;54.270;12.470;2022-07-17T00:13:25;102361.22;;;12.55;100.00
19236;BME280;9752;54.270;12.470;2022-07-17T00:18:26;102357.78;;;12.78;100.00
19236;BME280;9752;54.270;12.470;2022-07-17T00:23:28;102343.69;;;13.10;100.00
19236;BME280;9752;54.270;12.470;2022-07-17T00:28:31;102347.75;;;13.18;100.00
19236;BME280;9752;54.270;12.470;2022-07-17T00:33:33;102360.34;;;13.24;100.00
19236;BME280;9752;54.270;12.470;2022-07-17T00:38:35;102370.19;;;13.16;100.00
19236;BME280;9752;54.270;12.470;2022-07-17T00:43:38;102363.63;;;13.09;100.00
19236;BME280;9752;54.270;12.470;2022-07-17T00:48:40;102350.03;;;13.02;100.00
19236;BME280;9752;54.270;12.470;2022-07-17T00:53:42;102350.38;;;13.06;100.00
19236;BME280;9752;54.270;12.470;2022-07-17T00:58:48;102349.59;;;13.07;100.00
19236;BME280;9752;54.270;12.470;2022-07-17T01:03:50;102346.97;;;12.96;100.00
19236;BME280;9752;54.270;12.470;2022-07-17T01:08:52;102351.13;;;12.94;100.00
19236;BME280;9752;54.270;12.470;2022-07-17T01:13:56;102356.03;;;13.01;100.00
19236;BME280;9752;54.270;12.470;2022-07-17T01:18:58;102349.72;;;13.09;100.00
19236;BME280;9752;54.270;12.470;2022-07-17T01:24:01;102346.75;;;13.04;100.00
19236;BME280;9752;54.270;12.470;2022-07-17T01:29:04;102333.03;;;12.95;100.00
19236;BME280;9752;54.270;12.470;2022-07-17T01:34:08;102339.94;;;12.95;100.00
19236;BME280;9752;54.270;12.470;2022-07-17T01:39:12;102335.06;;;12.87;100.00
19236;BME280;9752;54.270;12.470;2022-07-17T01:44:13;102339.34;;;12.75;100.00
19236;BME280;9752;54.270;12.470;2022-07-17T01:49:17;102338.94;;;12.59;100.00
19236;BME280;9752;54.270;12.470;2022-07-17T01:54:20;102331.00;;;12.45;100.00
19236;BME280;9752;54.270;12.470;2022-07-17T01:59:23;102342.81;;;12.30;100.00
19236;BME280;9752;54.270;12.470;2022-07-17T02:04:24;102344.41;;;12.28;100.00
19236;BME280;9752;54.270;12.470;2022-07-17T02:09:28;102345.16;;;12.27;100.00
19236;BME280;9752;54.270;12.470;2022-07-17T02:14:29;102349.38;;;12.37;100.00
19236;BME280;9752;54.270;12.470;2022-07-17T02:19:31;102348.66;;;12.49;100.00
19236;BME280;9752;54.270;12.470;2022-07-17T02:24:34;102342.72;;;12.74;100.00
19236;BME280;9752;54.270;12.470;2022-07-17T02:29:36;102343.94;;;13.01;100.00
19236;BME280;9752;54.270;12.470;2022-07-17T02:34:38;102349.19;;;12.79;100.00
19236;BME280;9752;54.270;12.470;2022-07-17T02:39:41;102346.16;;;12.85;100.00
19236;BME280;9752;54.270;12.470;2022-07-17T02:44:54;102355.44;;;12.81;100.00
19236;BME280;9752;54.270;12.470;2022-07-17T02:49:56;102347.88;;;12.84;100.00
19236;BME280;9752;54.270;12.470;2022-07-17T02:55:01;102346.63;;;12.91;100.00
19236;BME280;9752;54.270;12.470;2022-07-17T03:00:05;102356.72;;;13.10;100.00
19236;BME280;9752;54.270;12.470;2022-07-17T03:05:09;102355.25;;;13.25;100.00
19236;BME280;9752;54.270;12.470;2022-07-17T03:10:13;102355.81;;;13.21;100.00
19236;BME280;9752;54.270;12.470;2022-07-17T03:15:15;102371.13;;;13.17;100.00
19236;BME280;9752;54.270;12.470;2022-07-17T03:20:16;102374.25;;;13.13;100.00
19236;BME280;9752;54.270;12.470;2022-07-17T03:25:19;102380.03;;;13.08;100.00
19236;BME280;9752;54.270;12.470;2022-07-17T03:30:21;102381.63;;;13.18;100.00
19236;BME280;9752;54.270;12.470;2022-07-17T03:35:23;102376.22;;;13.27;100.00
19236;BME280;9752;54.270;12.470;2022-07-17T03:40:26;102385.53;;;13.35;100.00
19236;BME280;9752;54.270;12.470;2022-07-17T03:45:28;102399.13;;;13.43;100.00
19236;BME280;9752;54.270;12.470;2022-07-17T03:50:30;102395.53;;;13.53;100.00
19236;BME280;9752;54.270;12.470;2022-07-17T03:55:33;102399.63;;;13.49;100.00
19236;BME280;9752;54.270;12.470;2022-07-17T04:00:35;102396.00;;;13.47;100.00
19236;BME280;9752;54.270;12.470;2022-07-17T04:05:37;102395.28;;;13.61;100.00
19236;BME280;9752;54.270;12.470;2022-07-17T04:10:40;102396.88;;;13.59;100.00
19236;BME280;9752;54.270;12.470;2022-07-17T04:15:42;102399.16;;;13.66;100.00
19236;BME280;9752;54.270;12.470;2022-07-17T04:20:59;102394.28;;;13.59;100.00
19236;BME280;9752;54.270;12.470;2022-07-17T04:26:03;102393.38;;;13.59;100.00
19236;BME280;9752;54.270;12.470;2022-07-17T04:31:07;102381.91;;;13.69;100.00
19236;BME280;9752;54.270;12.470;2022-07-17T04:36:09;102380.78;;;13.65;100.00
19236;BME280;9752;54.270;12.470;2022-07-17T04:41:12;102389.50;;;13.77;100.00
19236;BME280;9752;54.270;12.470;2022-07-17T04:46:14;102397.75;;;13.95;100.00
19236;BME280;9752;54.270;12.470;2022-07-17T04:51:16;102396.81;;;14.06;100.00
19236;BME280;9752;54.270;12.470;2022-07-17T04:56:19;102400.31;;;14.07;100.00
19236;BME280;9752;54.270;12.470;2022-07-17T05:01:21;102411.56;;;14.06;100.00
19236;BME280;9752;54.270;12.470;2022-07-17T05:06:22;102412.59;;;14.45;100.00
19236;BME280;9752;54.270;12.470;2022-07-17T05:11:26;102421.06;;;14.54;100.00
19236;BME280;9752;54.270;12.470;2022-07-17T05:16:27;102419.75;;;14.48;100.00
19236;BME280;9752;54.270;12.470;2022-07-17T05:21:29;102421.97;;;14.55;100.00
19236;BME280;9752;54.270;12.470;2022-07-17T05:26:32;102433.47;;;14.45;100.00
19236;BME280;9752;54.270;12.470;2022-07-17T05:31:34;102419.13;;;14.63;100.00
19236;BME280;9752;54.270;12.470;2022-07-17T05:36:38;102418.34;;;14.53;100.00
19236;BME280;9752;54.270;12.470;2022-07-17T05:41:41;102420.28;;;14.55;100.00
19236;BME280;9752;54.270;12.470;2022-07-17T05:46:43;102425.50;;;14.55;100.00
19236;BME280;9752;54.270;12.470;2022-07-17T05:51:45;102428.22;;;14.57;100.00
19236;BME280;9752;54.270;12.470;2022-07-17T05:56:48;102433.91;;;14.63;100.00
19236;BME280;9752;54.270;12.470;2022-07-17T06:01:50;102438.19;;;14.62;100.00
19236;BME280;9752;54.270;12.470;2022-07-17T06:06:52;102444.81;;;14.82;100.00
19236;BME280;9752;54.270;12.470;2022-07-17T06:11:55;102450.66;;;14.78;100.00
19236;BME280;9752;54.270;12.470;2022-07-17T06:16:57;102447.81;;;14.75;100.00
19236;BME280;9752;54.270;12.470;2022-07-17T06:21:58;102451.53;;;15.04;100.00
19236;BME280;9752;54.270;12.470;2022-07-17T06:27:02;102461.22;;;14.68;100.00
19236;BME280;9752;54.270;12.470;2022-07-17T06:32:05;102466.72;;;15.10;100.00
19236;BME280;9752;54.270;12.470;2022-07-17T06:37:07;102463.50;;;15.14;100.00
19236;BME280;9752;54.270;12.470;2022-07-17T06:42:10;102462.16;;;14.94;100.00
19236;BME280;9752;54.270;12.470;2022-07-17T06:47:12;102456.97;;;15.07;100.00
19236;BME280;9752;54.270;12.470;2022-07-17T06:52:14;102458.44;;;15.42;100.00
19236;BME280;9752;54.270;12.470;2022-07-17T06:57:17;102462.38;;;15.35;100.00
19236;BME280;9752;54.270;12.470;2022-07-17T07:02:19;102452.56;;;15.19;100.00
19236;BME280;9752;54.270;12.470;2022-07-17T07:07:21;102453.97;;;15.14;100.00
19236;BME280;9752;54.270;12.470;2022-07-17T07:12:24;102456.72;;;15.29;100.00
19236;BME280;9752;54.270;12.470;2022-07-17T07:17:26;102458.22;;;15.77;100.00
19236;BME280;9752;54.270;12.470;2022-07-17T07:22:28;102463.09;;;15.46;100.00
19236;BME280;9752;54.270;12.470;2022-07-17T07:27:31;102466.69;;;15.35;100.00
19236;BME280;9752;54.270;12.470;2022-07-17T07:32:33;102457.38;;;15.52;100.00
19236;BME280;9752;54.270;12.470;2022-07-17T07:37:35;102466.50;;;15.45;100.00
19236;BME280;9752;54.270;12.470;2022-07-17T07:42:38;102465.25;;;15.27;100.00
19236;BME280;9752;54.270;12.470;2022-07-17T07:47:41;102475.25;;;15.46;100.00
19236;BME280;9752;54.270;12.470;2022-07-17T07:52:44;102495.31;;;15.72;100.00
19236;BME280;9752;54.270;12.470;2022-07-17T07:57:47;102487.56;;;15.60;100.00
19236;BME280;9752;54.270;12.470;2022-07-17T08:02:49;102491.06;;;15.60;100.00
19236;BME280;9752;54.270;12.470;2022-07-17T08:07:51;102489.28;;;15.59;100.00
19236;BME280;9752;54.270;12.470;2022-07-17T08:12:55;102489.09;;;15.83;100.00
19236;BME280;9752;54.270;12.470;2022-07-17T08:17:56;102496.75;;;15.93;100.00
19236;BME280;9752;54.270;12.470;2022-07-17T08:22:59;102489.91;;;16.22;100.00
19236;BME280;9752;54.270;12.470;2022-07-17T08:28:04;102500.88;;;16.16;100.00
19236;BME280;9752;54.270;12.470;2022-07-17T08:33:07;102496.88;;;16.50;100.00
19236;BME280;9752;54.270;12.470;2022-07-17T08:38:09;102501.06;;;16.19;100.00
19236;BME280;9752;54.270;12.470;2022-07-17T08:43:12;102511.00;;;16.38;100.00
19236;BME280;9752;54.270;12.470;2022-07-17T08:48:16;102517.75;;;16.35;100.00
19236;BME280;9752;54.270;12.470;2022-07-17T08:53:18;102517.09;;;15.84;100.00
19236;BME280;9752;54.270;12.470;2022-07-17T08:58:22;102531.81;;;15.70;100.00
19236;BME280;9752;54.270;12.470;2022-07-17T09:03:23;102534.91;;;15.51;100.00
19236;BME280;9752;54.270;12.470;2022-07-17T09:08:25;102533.13;;;15.64;100.00
19236;BME280;9752;54.270;12.470;2022-07-17T09:13:31;102535.09;;;16.06;100.00
19236;BME280;9752;54.270;12.470;2022-07-17T09:18:43;102532.31;;;16.16;100.00
19236;BME280;9752;54.270;12.470;2022-07-17T09:23:45;102526.94;;;16.42;100.00
19236;BME280;9752;54.270;12.470;2022-07-17T09:29:00;102539.91;;;16.40;100.00
19236;BME280;9752;54.270;12.470;2022-07-17T09:34:02;102567.00;;;16.54;100.00
19236;BME280;9752;54.270;12.470;2022-07-17T09:39:03;102543.22;;;16.64;100.00
19236;BME280;9752;54.270;12.470;2022-07-17T09:44:07;102556.31;;;17.34;100.00
19236;BME280;9752;54.270;12.470;2022-07-17T09:49:09;102553.69;;;17.34;100.00
19236;BME280;9752;54.270;12.470;2022-07-17T09:54:11;102566.22;;;17.25;100.00
19236;BME280;9752;54.270;12.470;2022-07-17T09:59:15;102575.28;;;16.47;100.00
19236;BME280;9752;54.270;12.470;2022-07-17T10:04:18;102567.88;;;16.81;100.00
19236;BME280;9752;54.270;12.470;2022-07-17T10:09:20;102581.19;;;17.12;100.00
19236;BME280;9752;54.270;12.470;2022-07-17T10:14:24;102570.81;;;16.59;100.00
19236;BME280;9752;54.270;12.470;2022-07-17T10:19:26;102554.22;;;17.00;100.00
19236;BME280;9752;54.270;12.470;2022-07-17T10:24:29;102561.13;;;16.71;100.00
19236;BME280;9752;54.270;12.470;2022-07-17T10:29:35;102578.88;;;17.32;100.00
19236;BME280;9752;54.270;12.470;2022-07-17T10:34:42;102569.66;;;17.24;100.00
19236;BME280;9752;54.270;12.470;2022-07-17T10:40:03;102568.09;;;17.70;100.00
19236;BME280;9752;54.270;12.470;2022-07-17T10:45:08;102562.47;;;17.49;100.00
19236;BME280;9752;54.270;12.470;2022-07-17T10:50:10;102572.53;;;18.31;100.00
19236;BME280;9752;54.270;12.470;2022-07-17T10:55:20;102578.16;;;17.92;100.00
19236;BME280;9752;54.270;12.470;2022-07-17T11:00:24;102574.19;;;17.84;100.00
19236;BME280;9752;54.270;12.470;2022-07-17T11:05:26;102580.97;;;17.37;100.00
19236;BME280;9752;54.270;12.470;2022-07-17T11:10:28;102582.50;;;17.19;100.00
19236;BME280;9752;54.270;12.470;2022-07-17T11:15:37;102583.47;;;17.49;100.00
19236;BME280;9752;54.270;12.470;2022-07-17T11:20:50;102590.94;;;18.01;100.00
19236;BME280;9752;54.270;12.470;2022-07-17T11:25:57;102598.31;;;17.64;100.00
19236;BME280;9752;54.270;12.470;2022-07-17T11:31:03;102604.88;;;17.42;100.00
19236;BME280;9752;54.270;12.470;2022-07-17T11:36:05;102609.56;;;17.76;100.00
19236;BME280;9752;54.270;12.470;2022-07-17T11:41:07;102592.91;;;18.20;100.00
19236;BME280;9752;54.270;12.470;2022-07-17T11:46:10;102592.09;;;18.67;100.00
19236;BME280;9752;54.270;12.470;2022-07-17T11:51:12;102602.69;;;17.78;100.00
19236;BME280;9752;54.270;12.470;2022-07-17T11:56:19;102583.13;;;17.73;100.00
19236;BME280;9752;54.270;12.470;2022-07-17T12:01:23;102583.50;;;18.09;100.00
19236;BME280;9752;54.270;12.470;2022-07-17T12:06:29;102587.53;;;18.48;100.00
19236;BME280;9752;54.270;12.470;2022-07-17T12:11:31;102589.53;;;18.38;100.00
19236;BME280;9752;54.270;12.470;2022-07-17T12:16:36;102585.63;;;18.46;100.00
19236;BME280;9752;54.270;12.470;2022-07-17T12:21:55;102578.91;;;18.99;100.00
19236;BME280;9752;54.270;12.470;2022-07-17T12:27:00;102602.69;;;18.69;100.00
19236;BME280;9752;54.270;12.470;2022-07-17T12:32:06;102582.31;;;18.65;100.00
19236;BME280;9752;54.270;12.470;2022-07-17T12:37:08;102565.44;;;18.92;100.00
19236;BME280;9752;54.270;12.470;2022-07-17T12:42:10;102573.78;;;18.69;100.00
19236;BME280;9752;54.270;12.470;2022-07-17T12:47:13;102561.91;;;18.61;100.00
19236;BME280;9752;54.270;12.470;2022-07-17T12:52:15;102574.34;;;18.63;100.00
19236;BME280;9752;54.270;12.470;2022-07-17T12:57:17;102574.00;;;18.88;100.00
19236;BME280;9752;54.270;12.470;2022-07-17T13:02:20;102569.94;;;18.79;100.00
19236;BME280;9752;54.270;12.470;2022-07-17T13:07:22;102553.19;;;18.93;100.00
19236;BME280;9752;54.270;12.470;2022-07-17T13:12:24;102561.59;;;19.02;100.00
19236;BME280;9752;54.270;12.470;2022-07-17T13:17:27;102557.09;;;19.16;100.00
19236;BME280;9752;54.270;12.470;2022-07-17T13:22:29;102566.50;;;19.45;100.00
19236;BME280;9752;54.270;12.470;2022-07-17T13:27:30;102566.97;;;19.55;100.00
19236;BME280;9752;54.270;12.470;2022-07-17T13:32:34;102570.03;;;18.97;100.00
19236;BME280;9752;54.270;12.470;2022-07-17T13:37:36;102558.88;;;18.84;100.00
19236;BME280;9752;54.270;12.470;2022-07-17T13:42:38;102559.28;;;19.41;100.00
19236;BME280;9752;54.270;12.470;2022-07-17T13:47:41;102546.16;;;19.59;100.00
19236;BME280;9752;54.270;12.470;2022-07-17T13:52:43;102554.91;;;19.25;100.00
19236;BME280;9752;54.270;12.470;2022-07-17T13:57:45;102551.91;;;19.01;100.00
19236;BME280;9752;54.270;12.470;2022-07-17T14:02:48;102554.81;;;19.57;100.00
19236;BME280;9752;54.270;12.470;2022-07-17T14:07:50;102562.56;;;19.21;100.00
19236;BME280;9752;54.270;12.470;2022-07-17T14:12:52;102564.22;;;19.35;100.00
19236;BME280;9752;54.270;12.470;2022-07-17T14:17:55;102562.38;;;19.50;100.00
19236;BME280;9752;54.270;12.470;2022-07-17T14:22:57;102558.72;;;19.81;100.00
19236;BME280;9752;54.270;12.470;2022-07-17T14:27:59;102561.06;;;20.47;100.00
19236;BME280;9752;54.270;12.470;2022-07-17T14:33:02;102565.22;;;20.42;100.00
19236;BME280;9752;54.270;12.470;2022-07-17T14:38:04;102567.06;;;21.58;100.00
19236;BME280;9752;54.270;12.470;2022-07-17T14:43:06;102570.81;;;21.84;100.00
19236;BME280;9752;54.270;12.470;2022-07-17T14:48:09;102559.91;;;22.63;100.00
19236;BME280;9752;54.270;12.470;2022-07-17T14:53:11;102559.84;;;21.75;100.00
19236;BME280;9752;54.270;12.470;2022-07-17T14:58:13;102561.06;;;21.43;100.00
19236;BME280;9752;54.270;12.470;2022-07-17T15:03:16;102563.75;;;22.48;100.00
19236;BME280;9752;54.270;12.470;2022-07-17T15:08:18;102556.25;;;21.94;100.00
19236;BME280;9752;54.270;12.470;2022-07-17T15:13:20;102540.94;;;23.21;100.00
19236;BME280;9752;54.270;12.470;2022-07-17T15:18:23;102563.88;;;22.51;100.00
19236;BME280;9752;54.270;12.470;2022-07-17T15:23:25;102552.72;;;21.94;100.00
19236;BME280;9752;54.270;12.470;2022-07-17T15:28:26;102565.75;;;22.12;100.00
19236;BME280;9752;54.270;12.470;2022-07-17T15:38:31;102546.31;;;22.10;100.00
19236;BME280;9752;54.270;12.470;2022-07-17T15:43:33;102548.72;;;22.03;100.00
19236;BME280;9752;54.270;12.470;2022-07-17T15:48:36;102553.84;;;22.65;100.00
19236;BME280;9752;54.270;12.470;2022-07-17T15:53:38;102543.44;;;22.70;100.00
19236;BME280;9752;54.270;12.470;2022-07-17T15:58:40;102545.09;;;22.90;100.00
19236;BME280;9752;54.270;12.470;2022-07-17T16:03:43;102537.84;;;22.39;100.00
19236;BME280;9752;54.270;12.470;2022-07-17T16:08:45;102540.88;;;23.44;100.00
19236;BME280;9752;54.270;12.470;2022-07-17T16:13:47;102538.88;;;22.43;100.00
19236;BME280;9752;54.270;12.470;2022-07-17T16:18:50;102539.50;;;23.55;100.00
19236;BME280;9752;54.270;12.470;2022-07-17T16:23:52;102520.31;;;23.88;100.00
19236;BME280;9752;54.270;12.470;2022-07-17T16:28:56;102511.22;;;23.80;100.00
19236;BME280;9752;54.270;12.470;2022-07-17T16:33:59;102505.59;;;24.25;100.00
19236;BME280;9752;54.270;12.470;2022-07-17T16:39:01;102499.13;;;25.38;100.00
19236;BME280;9752;54.270;12.470;2022-07-17T16:44:03;102502.97;;;24.26;100.00
19236;BME280;9752;54.270;12.470;2022-07-17T16:49:06;102495.69;;;25.40;100.00
19236;BME280;9752;54.270;12.470;2022-07-17T16:54:08;102493.28;;;24.27;100.00
19236;BME280;9752;54.270;12.470;2022-07-17T16:59:10;102495.25;;;25.58;100.00
19236;BME280;9752;54.270;12.470;2022-07-17T17:04:14;102492.00;;;25.35;100.00
19236;BME280;9752;54.270;12.470;2022-07-17T17:09:15;102501.72;;;24.13;100.00
19236;BME280;9752;54.270;12.470;2022-07-17T17:14:18;102502.09;;;23.71;100.00
19236;BME280;9752;54.270;12.470;2022-07-17T17:19:21;102499.06;;;23.61;100.00
19236;BME280;9752;54.270;12.470;2022-07-17T17:24:23;102497.66;;;23.97;100.00
19236;BME280;9752;54.270;12.470;2022-07-17T17:29:24;102497.41;;;24.46;100.00
19236;BME280;9752;54.270;12.470;2022-07-17T17:34:28;102494.56;;;25.00;100.00
19236;BME280;9752;54.270;12.470;2022-07-17T17:39:30;102484.22;;;25.43;100.00
19236;BME280;9752;54.270;12.470;2022-07-17T17:44:31;102475.78;;;23.25;100.00
19236;BME280;9752;54.270;12.470;2022-07-17T17:49:35;102470.44;;;23.76;100.00
19236;BME280;9752;54.270;12.470;2022-07-17T17:54:37;102468.72;;;24.05;100.00
19236;BME280;9752;54.270;12.470;2022-07-17T17:59:39;102475.03;;;22.56;100.00
19236;BME280;9752;54.270;12.470;2022-07-17T18:04:42;102469.28;;;20.20;100.00
19236;BME280;9752;54.270;12.470;2022-07-17T18:09:44;102473.56;;;18.79;100.00
19236;BME280;9752;54.270;12.470;2022-07-17T18:14:46;102469.50;;;18.05;100.00
19236;BME280;9752;54.270;12.470;2022-07-17T18:19:49;102470.38;;;17.60;100.00
19236;BME280;9752;54.270;12.470;2022-07-17T18:24:51;102481.94;;;17.33;100.00
19236;BME280;9752;54.270;12.470;2022-07-17T18:29:54;102478.25;;;17.15;100.00
19236;BME280;9752;54.270;12.470;2022-07-17T18:34:57;102477.91;;;16.95;100.00
19236;BME280;9752;54.270;12.470;2022-07-17T18:39:59;102465.75;;;16.83;100.00
19236;BME280;9752;54.270;12.470;2022-07-17T18:45:03;102471.53;;;16.77;100.00
19236;BME280;9752;54.270;12.470;2022-07-17T18:50:07;102469.31;;;16.70;100.00
19236;BME280;9752;54.270;12.470;2022-07-17T18:55:09;102478.22;;;16.58;100.00
19236;BME280;9752;54.270;12.470;2022-07-17T19:00:13;102475.13;;;16.51;100.00
19236;BME280;9752;54.270;12.470;2022-07-17T19:05:16;102471.94;;;16.42;100.00
19236;BME280;9752;54.270;12.470;2022-07-17T19:10:19;102466.38;;;16.37;100.00
19236;BME280;9752;54.270;12.470;2022-07-17T19:15:21;102464.91;;;16.27;100.00
19236;BME280;9752;54.270;12.470;2022-07-17T19:20:24;102462.50;;;16.17;100.00
19236;BME280;9752;54.270;12.470;2022-07-17T19:25:25;102475.59;;;16.17;100.00
19236;BME280;9752;54.270;12.470;2022-07-17T19:30:28;102478.41;;;16.07;100.00
19236;BME280;9752;54.270;12.470;2022-07-17T19:35:32;102471.78;;;15.85;100.00
19236;BME280;9752;54.270;12.470;2022-07-17T19:40:34;102465.75;;;15.73;100.00
19236;BME280;9752;54.270;12.470;2022-07-17T19:45:36;102470.25;;;15.62;100.00
19236;BME280;9752;54.270;12.470;2022-07-17T19:50:39;102479.19;;;15.52;100.00
19236;BME280;9752;54.270;12.470;2022-07-17T19:55:41;102486.84;;;15.62;100.00
19236;BME280;9752;54.270;12.470;2022-07-17T20:00:57;102481.44;;;15.73;100.00
19236;BME280;9752;54.270;12.470;2022-07-17T20:06:00;102475.63;;;15.90;100.00
19236;BME280;9752;54.270;12.470;2022-07-17T20:11:04;102472.19;;;15.91;100.00
19236;BME280;9752;54.270;12.470;2022-07-17T20:16:06;102461.09;;;15.69;100.00
19236;BME280;9752;54.270;12.470;2022-07-17T20:21:10;102464.00;;;15.60;100.00
19236;BME280;9752;54.270;12.470;2022-07-17T20:26:12;102453.66;;;15.48;100.00
19236;BME280;9752;54.270;12.470;2022-07-17T20:31:14;102448.19;;;15.45;100.00
19236;BME280;9752;54.270;12.470;2022-07-17T20:36:17;102448.19;;;15.45;100.00
19236;BME280;9752;54.270;12.470;2022-07-17T20:41:19;102451.81;;;15.34;100.00
19236;BME280;9752;54.270;12.470;2022-07-17T20:46:21;102439.94;;;15.26;100.00
19236;BME280;9752;54.270;12.470;2022-07-17T20:51:24;102445.34;;;15.29;100.00
19236;BME280;9752;54.270;12.470;2022-07-17T20:56:26;102460.25;;;15.30;100.00
19236;BME280;9752;54.270;12.470;2022-07-17T21:01:28;102457.38;;;15.13;100.00
19236;BME280;9752;54.270;12.470;2022-07-17T21:06:31;102459.97;;;15.00;100.00
19236;BME280;9752;54.270;12.470;2022-07-17T21:11:33;102460.81;;;14.87;100.00
19236;BME280;9752;54.270;12.470;2022-07-17T21:16:35;102449.28;;;14.83;100.00
19236;BME280;9752;54.270;12.470;2022-07-17T21:21:39;102442.91;;;14.80;100.00
19236;BME280;9752;54.270;12.470;2022-07-17T21:26:41;102442.91;;;14.80;100.00
19236;BME280;9752;54.270;12.470;2022-07-17T21:31:42;102447.50;;;14.96;100.00
19236;BME280;9752;54.270;12.470;2022-07-17T21:36:46;102453.97;;;15.14;100.00
19236;BME280;9752;54.270;12.470;2022-07-17T21:41:47;102448.47;;;15.36;100.00
19236;BME280;9752;54.270;12.470;2022-07-17T21:46:49;102450.44;;;15.66;100.00
19236;BME280;9752;54.270;12.470;2022-07-17T21:51:52;102448.84;;;15.81;100.00
19236;BME280;9752;54.270;12.470;2022-07-17T21:56:54;102474.22;;;15.95;100.00
19236;BME280;9752;54.270;12.470;2022-07-17T22:01:56;102484.25;;;16.16;100.00
19236;BME280;9752;54.270;12.470;2022-07-17T22:07:00;102477.59;;;16.21;100.00
19236;BME280;9752;54.270;12.470;2022-07-17T22:12:03;102485.66;;;16.24;100.00
19236;BME280;9752;54.270;12.470;2022-07-17T22:17:05;102479.19;;;16.32;100.00
19236;BME280;9752;54.270;12.470;2022-07-17T22:22:09;102474.19;;;16.22;100.00
19236;BME280;9752;54.270;12.470;2022-07-17T22:27:11;102471.78;;;16.12;100.00
19236;BME280;9752;54.270;12.470;2022-07-17T22:32:14;102478.72;;;16.25;100.00
19236;BME280;9752;54.270;12.470;2022-07-17T22:37:17;102479.00;;;16.16;100.00
19236;BME280;9752;54.270;12.470;2022-07-17T22:42:19;102481.47;;;15.99;100.00
19236;BME280;9752;54.270;12.470;2022-07-17T22:47:20;102470.78;;;15.83;100.00
19236;BME280;9752;54.270;12.470;2022-07-17T22:52:24;102467.38;;;15.97;100.00
19236;BME280;9752;54.270;12.470;2022-07-17T22:57:25;102462.72;;;15.80;100.00
19236;BME280;9752;54.270;12.470;2022-07-17T23:02:27;102461.91;;;15.54;100.00
19236;BME280;9752;54.270;12.470;2022-07-17T23:07:31;102465.72;;;15.46;100.00
19236;BME280;9752;54.270;12.470;2022-07-17T23:12:33;102459.91;;;15.64;100.00
19236;BME280;9752;54.270;12.470;2022-07-17T23:17:35;102451.44;;;15.68;100.00
19236;BME280;9752;54.270;12.470;2022-07-17T23:22:38;102447.59;;;15.62;100.00
19236;BME280;9752;54.270;12.470;2022-07-17T23:27:40;102452.81;;;15.36;100.00
19236;BME280;9752;54.270;12.470;2022-07-17T23:32:42;102458.22;;;15.26;100.00
19236;BME280;9752;54.270;12.470;2022-07-17T23:37:45;102459.22;;;15.14;100.00
19236;BME280;9752;54.270;12.470;2022-07-17T23:42:47;102445.50;;;15.05;100.00
19236;BME280;9752;54.270;12.470;2022-07-17T23:47:49;102436.31;;;14.98;100.00
19236;BME280;9752;54.270;12.470;2022-07-17T23:52:52;102432.41;;;14.92;100.00
19236;BME280;9752;54.270;12.470;2022-07-17T23:57:54;102432.78;;;14.84;100.00
